Time;durP1;ratioP1;P1;durP2;ratioP2;P2;SDS_P1;SDS_P2;PMS_P1;PMS_P2;Temp;Humidity;BMP_temperature;BMP_pressure;BME280_temperature;BME280_humidity;BME280_pressure;Samples;Min_cycle;Max_cycle;Signal;HPM_P1;HPM_P2
2021/08/23 04:52:28;;;;;;;28.23;19.83;;;;;;;;;;5075644;23;20124;-64
2021/08/23 04:55:00;;;;;;;23.75;18.65;;;;;;;;;;4993092;28;20046;-62
2021/08/23 04:57:27;;;;;;;33.33;20.38;;;;;;;;;;4993120;28;20045;-64
2021/08/23 04:59:55;;;;;;;31.52;20.38;;;;;;;;;;4992767;28;20060;-63
2021/08/23 05:02:22;;;;;;;30.77;19.58;;;;;;;;;;4992678;28;20425;-63
2021/08/23 05:04:49;;;;;;;33.53;18.75;;;;;;;;;;4992841;28;20038;-63
2021/08/23 05:07:16;;;;;;;26.10;18.25;;;;;;;;;;4991433;28;20121;-63
2021/08/23 05:09:45;;;;;;;18.73;16.15;;;;;;;;;;4992566;28;20046;-63
2021/08/23 05:12:12;;;;;;;20.98;16.80;;;;;;;;;;4992238;28;20042;-63
2021/08/23 05:14:39;;;;;;;27.70;17.48;;;;;;;;;;4992378;28;20050;-63
2021/08/23 05:17:07;;;;;;;22.95;16.80;;;;;;;;;;4992338;28;20046;-63
2021/08/23 05:19:34;;;;;;;25.30;16.48;;;;;;;;;;4992423;28;20046;-62
2021/08/23 05:22:01;;;;;;;19.67;15.80;;;;;;;;;;4992745;28;20511;-63
2021/08/23 05:24:29;;;;;;;20.25;15.43;;;;;;;;;;4992162;28;20077;-63
2021/08/23 05:26:57;;;;;;;19.92;16.13;;;;;;;;;;4992898;28;20034;-63
2021/08/23 05:29:24;;;;;;;27.75;15.38;;;;;;;;;;4992483;28;20521;-63
2021/08/23 05:31:52;;;;;;;18.80;15.25;;;;;;;;;;4992476;28;20121;-63
2021/08/23 05:34:19;;;;;;;21.17;14.88;;;;;;;;;;4992130;28;20235;-63
2021/08/23 05:36:46;;;;;;;20.15;15.57;;;;;;;;;;4991046;28;20038;-63
2021/08/23 05:39:14;;;;;;;23.52;15.82;;;;;;;;;;4991363;28;20401;-63
2021/08/23 05:41:41;;;;;;;18.88;15.13;;;;;;;;;;4992098;28;20049;-63
2021/08/23 05:44:10;;;;;;;18.65;16.45;;;;;;;;;;4991968;28;20045;-62
2021/08/23 05:46:37;;;;;;;18.60;15.30;;;;;;;;;;4991934;28;20070;-63
2021/08/23 05:49:05;;;;;;;25.00;14.98;;;;;;;;;;4991081;28;20499;-62
2021/08/23 05:51:32;;;;;;;23.95;14.02;;;;;;;;;;4991899;28;20505;-64
2021/08/23 05:53:59;;;;;;;17.80;14.43;;;;;;;;;;4992169;28;20066;-64
2021/08/23 05:56:26;;;;;;;18.60;14.85;;;;;;;;;;4991952;28;20057;-64
2021/08/23 05:58:54;;;;;;;19.75;14.38;;;;;;;;;;4991697;28;20129;-64
2021/08/23 06:01:22;;;;;;;18.00;13.48;;;;;;;;;;4991800;28;20070;-64
2021/08/23 06:03:49;;;;;;;25.38;13.25;;;;;;;;;;4991464;28;20510;-64
2021/08/23 06:06:17;;;;;;;18.58;13.38;;;;;;;;;;4991312;28;20038;-64
2021/08/23 06:08:44;;;;;;;12.45;10.48;;;;;;;;;;4991310;28;20046;-64
2021/08/23 06:11:11;;;;;;;13.13;10.13;;;;;;;;;;4991308;28;20522;-64
2021/08/23 06:13:39;;;;;;;11.55;9.90;;;;;;;;;;4989284;28;20494;-64
2021/08/23 06:16:06;;;;;;;9.60;8.55;;;;;;;;;;4988650;28;20065;-64
2021/08/23 06:18:35;;;;;;;14.57;8.45;;;;;;;;;;4991277;28;20058;-64
2021/08/23 06:21:03;;;;;;;9.68;6.53;;;;;;;;;;4990960;28;20042;-64
2021/08/23 06:23:30;;;;;;;8.18;6.40;;;;;;;;;;4991153;28;20129;-62
2021/08/23 06:25:57;;;;;;;9.00;5.88;;;;;;;;;;4990904;28;20053;-64
2021/08/23 06:28:25;;;;;;;7.60;6.10;;;;;;;;;;4991165;28;20041;-64
2021/08/23 06:30:52;;;;;;;7.85;6.00;;;;;;;;;;4990861;28;20050;-64
2021/08/23 06:33:20;;;;;;;7.32;6.55;;;;;;;;;;4991045;28;20450;-63
2021/08/23 06:35:48;;;;;;;9.80;6.43;;;;;;;;;;4990851;28;20053;-63
2021/08/23 06:38:15;;;;;;;10.68;7.03;;;;;;;;;;4991119;28;20046;-63
2021/08/23 06:40:43;;;;;;;7.18;6.47;;;;;;;;;;4990977;28;20112;-63
2021/08/23 06:43:10;;;;;;;11.10;7.18;;;;;;;;;;4990997;28;20046;-63
2021/08/23 06:45:38;;;;;;;9.27;6.40;;;;;;;;;;4990789;28;20109;-64
2021/08/23 06:48:05;;;;;;;8.10;6.95;;;;;;;;;;4990974;28;20054;-64
2021/08/23 06:50:32;;;;;;;8.40;7.45;;;;;;;;;;4990911;28;20068;-64
2021/08/23 06:53:02;;;;;;;10.15;9.13;;;;;;;;;;4990940;28;20046;-64
2021/08/23 06:55:30;;;;;;;8.27;7.18;;;;;;;;;;4990628;28;20046;-63
2021/08/23 06:57:57;;;;;;;14.40;9.52;;;;;;;;;;4990895;28;20042;-63
2021/08/23 07:00:24;;;;;;;11.70;9.13;;;;;;;;;;4993015;28;20042;-63
2021/08/23 07:02:52;;;;;;;14.45;9.63;;;;;;;;;;4994583;28;20073;-63
2021/08/23 07:05:19;;;;;;;10.15;9.15;;;;;;;;;;4994876;28;20519;-63
2021/08/23 07:07:46;;;;;;;11.48;10.27;;;;;;;;;;4994596;28;20121;-63
2021/08/23 07:10:15;;;;;;;10.70;9.60;;;;;;;;;;4994765;28;20051;-63
2021/08/23 07:12:43;;;;;;;11.90;10.02;;;;;;;;;;4977459;28;20047;-63
2021/08/23 07:15:11;;;;;;;10.18;8.10;;;;;;;;;;4981081;28;20048;-63
2021/08/23 07:17:38;;;;;;;9.90;9.00;;;;;;;;;;4994949;28;20474;-66
2021/08/23 07:20:06;;;;;;;10.27;9.05;;;;;;;;;;4994989;28;20038;-65
2021/08/23 07:22:34;;;;;;;14.00;9.15;;;;;;;;;;4995343;28;20050;-64
2021/08/23 07:25:01;;;;;;;11.48;8.40;;;;;;;;;;4992101;28;20532;-63
2021/08/23 07:27:32;;;;;;;9.15;7.43;;;;;;;;;;4983818;28;20039;-65
2021/08/23 07:30:01;;;;;;;11.13;8.30;;;;;;;;;;4991766;28;20166;-64
2021/08/23 07:32:29;;;;;;;8.80;7.47;;;;;;;;;;4986108;28;20049;-64
2021/08/23 07:34:56;;;;;;;9.18;7.13;;;;;;;;;;4982803;28;20046;-64
2021/08/23 07:37:23;;;;;;;12.38;7.40;;;;;;;;;;4994393;28;20042;-65
2021/08/23 07:39:50;;;;;;;10.35;7.18;;;;;;;;;;4994161;28;20050;-65
2021/08/23 07:42:18;;;;;;;9.70;7.00;;;;;;;;;;4994634;28;20046;-65
2021/08/23 07:44:47;;;;;;;8.70;7.10;;;;;;;;;;4993524;28;20046;-64
2021/08/23 07:47:14;;;;;;;9.43;7.75;;;;;;;;;;4994392;28;20046;-65
2021/08/23 07:49:41;;;;;;;8.57;7.80;;;;;;;;;;4989539;28;20050;-64
2021/08/23 07:52:09;;;;;;;9.82;8.88;;;;;;;;;;4986973;28;20414;-69
2021/08/23 07:54:37;;;;;;;9.88;8.88;;;;;;;;;;4984798;28;20046;-65
2021/08/23 07:57:04;;;;;;;9.00;8.23;;;;;;;;;;4993847;28;20117;-65
2021/08/23 07:59:32;;;;;;;10.18;9.35;;;;;;;;;;4993564;28;20121;-65
2021/08/23 08:02:00;;;;;;;10.65;9.75;;;;;;;;;;4993288;28;20053;-65
2021/08/23 08:04:27;;;;;;;12.25;11.10;;;;;;;;;;4986865;28;20078;-65
2021/08/23 08:06:55;;;;;;;11.10;10.02;;;;;;;;;;4988426;28;21755;-66
2021/08/23 08:09:22;;;;;;;11.95;10.75;;;;;;;;;;4986309;28;20053;-66
2021/08/23 08:11:49;;;;;;;11.15;10.15;;;;;;;;;;4983239;28;20054;-65
2021/08/23 08:14:17;;;;;;;10.13;9.10;;;;;;;;;;4974899;28;20406;-65
2021/08/23 08:16:44;;;;;;;14.55;9.98;;;;;;;;;;4980408;28;20043;-65
2021/08/23 08:19:12;;;;;;;11.23;10.32;;;;;;;;;;4982830;28;20047;-65
2021/08/23 08:21:40;;;;;;;11.13;10.18;;;;;;;;;;4989102;28;20380;-65
2021/08/23 08:24:07;;;;;;;12.45;11.15;;;;;;;;;;4988578;28;20046;-67
2021/08/23 08:26:34;;;;;;;12.32;10.90;;;;;;;;;;4988987;28;20042;-66
2021/08/23 08:29:02;;;;;;;12.98;11.43;;;;;;;;;;4987208;28;20047;-67
2021/08/23 08:31:29;;;;;;;14.70;11.90;;;;;;;;;;4993161;28;20042;-66
2021/08/23 08:33:58;;;;;;;12.38;11.25;;;;;;;;;;4991591;28;20074;-66
2021/08/23 08:36:29;;;;;;;13.27;12.07;;;;;;;;;;4993124;28;20529;-66
2021/08/23 08:38:56;;;;;;;11.40;10.20;;;;;;;;;;4993100;28;20101;-65
2021/08/23 08:41:23;;;;;;;11.98;10.88;;;;;;;;;;4992396;28;20069;-66
2021/08/23 08:43:50;;;;;;;15.32;12.40;;;;;;;;;;4992716;28;20506;-66
2021/08/23 08:46:18;;;;;;;12.50;11.38;;;;;;;;;;4993335;28;20435;-66
2021/08/23 08:48:45;;;;;;;12.10;11.10;;;;;;;;;;4992497;28;20499;-65
2021/08/23 08:51:13;;;;;;;11.80;10.70;;;;;;;;;;4984276;28;20050;-66
2021/08/23 08:53:42;;;;;;;12.55;11.40;;;;;;;;;;4987669;28;20084;-67
2021/08/23 08:56:09;;;;;;;12.63;10.60;;;;;;;;;;4991001;28;20049;-66
2021/08/23 08:58:38;;;;;;;12.88;10.40;;;;;;;;;;4983888;28;20532;-67
2021/08/23 09:01:06;;;;;;;12.43;11.27;;;;;;;;;;4986398;28;20054;-67
2021/08/23 09:03:35;;;;;;;12.43;11.13;;;;;;;;;;4988504;28;20445;-67
2021/08/23 09:06:04;;;;;;;12.73;11.52;;;;;;;;;;4989712;28;20050;-68
2021/08/23 09:08:31;;;;;;;11.60;10.50;;;;;;;;;;4989095;28;20057;-67
2021/08/23 09:11:10;;;;;;;12.90;11.27;;;;;;;;;;4989669;28;20047;-67
2021/08/23 09:13:37;;;;;;;17.27;12.02;;;;;;;;;;4988635;28;20052;-66
2021/08/23 09:16:04;;;;;;;12.45;11.23;;;;;;;;;;4990680;28;20502;-66
2021/08/23 09:18:31;;;;;;;12.73;11.48;;;;;;;;;;4990419;28;20053;-66
2021/08/23 09:21:00;;;;;;;13.10;11.77;;;;;;;;;;4984912;28;20057;-65
2021/08/23 09:23:34;;;;;;;12.82;11.50;;;;;;;;;;4982425;28;20537;-66
2021/08/23 09:26:11;;;;;;;12.93;11.65;;;;;;;;;;4981836;28;20132;-66
2021/08/23 09:28:39;;;;;;;12.38;11.27;;;;;;;;;;4984099;28;20490;-65
2021/08/23 09:31:10;;;;;;;12.20;11.07;;;;;;;;;;4983570;28;20117;-65
2021/08/23 09:33:42;;;;;;;11.80;10.73;;;;;;;;;;4982669;28;20050;-65
2021/08/23 09:36:10;;;;;;;12.88;10.93;;;;;;;;;;4983855;28;20517;-65
2021/08/23 09:38:39;;;;;;;12.15;11.00;;;;;;;;;;4983181;28;20057;-65
2021/08/23 09:41:07;;;;;;;11.77;10.52;;;;;;;;;;4983748;28;20498;-65
2021/08/23 09:43:36;;;;;;;10.68;9.75;;;;;;;;;;4981282;28;20042;-65
2021/08/23 09:46:10;;;;;;;11.30;10.20;;;;;;;;;;4980778;28;20050;-65
2021/08/23 09:48:38;;;;;;;11.70;10.63;;;;;;;;;;4987435;28;20038;-66
2021/08/23 09:51:05;;;;;;;11.27;9.52;;;;;;;;;;4988958;28;20065;-65
2021/08/23 09:53:32;;;;;;;9.93;9.10;;;;;;;;;;4990956;28;20045;-65
2021/08/23 09:56:00;;;;;;;9.57;8.68;;;;;;;;;;4990219;28;20050;-65
2021/08/23 09:58:27;;;;;;;9.98;9.02;;;;;;;;;;4990845;28;20041;-65
2021/08/23 10:00:57;;;;;;;9.27;8.35;;;;;;;;;;4989378;28;20053;-66
2021/08/23 10:03:24;;;;;;;9.07;8.15;;;;;;;;;;4990324;28;20506;-65
2021/08/23 10:05:54;;;;;;;7.80;6.80;;;;;;;;;;4988352;28;20038;-65
2021/08/23 10:08:22;;;;;;;8.45;7.65;;;;;;;;;;4990829;28;20047;-65
2021/08/23 10:10:50;;;;;;;10.32;7.95;;;;;;;;;;4988313;28;20042;-65
2021/08/23 10:13:17;;;;;;;9.80;8.20;;;;;;;;;;4980725;28;20046;-65
2021/08/23 10:15:44;;;;;;;8.65;7.78;;;;;;;;;;4976835;28;20046;-66
2021/08/23 10:18:13;;;;;;;11.32;8.10;;;;;;;;;;4983984;28;20034;-65
2021/08/23 10:20:40;;;;;;;9.18;8.38;;;;;;;;;;4983045;28;20050;-65
2021/08/23 10:23:08;;;;;;;10.43;9.32;;;;;;;;;;4986345;28;20152;-66
2021/08/23 10:25:36;;;;;;;10.73;9.75;;;;;;;;;;4990444;28;20070;-66
2021/08/23 10:28:07;;;;;;;14.32;12.82;;;;;;;;;;4985952;28;20038;-66
2021/08/23 10:30:36;;;;;;;13.30;11.95;;;;;;;;;;4980657;28;20441;-66
2021/08/23 10:33:13;;;;;;;12.38;11.25;;;;;;;;;;4989272;28;20042;-66
2021/08/23 10:35:40;;;;;;;;;;;;;;;;;;4988900;28;20434;-66
2021/08/23 10:38:16;;;;;;;11.27;10.10;;;;;;;;;;4986241;28;19926;-66
2021/08/23 10:40:44;;;;;;;11.55;10.45;;;;;;;;;;4984840;28;20045;-66
2021/08/23 10:43:14;;;;;;;10.77;9.77;;;;;;;;;;4978210;28;20070;-66
2021/08/23 10:45:47;;;;;;;11.65;10.45;;;;;;;;;;4986978;28;20466;-66
2021/08/23 10:48:18;;;;;;;11.77;10.68;;;;;;;;;;4990829;28;20046;-66
2021/08/23 10:50:58;;;;;;;10.95;9.85;;;;;;;;;;4990752;28;20050;-66
2021/08/23 10:53:34;;;;;;;10.57;9.68;;;;;;;;;;4991215;28;20101;-66
2021/08/23 10:56:12;;;;;;;11.18;10.00;;;;;;;;;;4990778;28;20061;-66
2021/08/23 10:58:39;;;;;;;9.95;8.82;;;;;;;;;;4991073;28;20387;-66
2021/08/23 11:01:16;;;;;;;10.77;8.52;;;;;;;;;;4990659;28;20389;-66
2021/08/23 11:03:44;;;;;;;;;;;;;;;;;;5011952;23;20534;-65
2021/08/23 11:06:11;;;;;;;10.25;9.25;;;;;;;;;;4991157;28;19922;-66
2021/08/23 11:08:42;;;;;;;9.20;8.40;;;;;;;;;;4990805;28;20042;-65
2021/08/23 11:11:13;;;;;;;9.30;8.50;;;;;;;;;;4991266;28;20050;-66
2021/08/23 11:13:41;;;;;;;14.45;8.15;;;;;;;;;;4990948;28;20054;-65
2021/08/23 11:16:08;;;;;;;10.65;9.52;;;;;;;;;;4991198;28;20046;-66
2021/08/23 11:18:41;;;;;;;9.57;8.18;;;;;;;;;;4977528;28;20110;-66
2021/08/23 11:21:09;;;;;;;9.20;7.82;;;;;;;;;;4953287;29;20047;-66
2021/08/23 11:23:39;;;;;;;9.25;8.35;;;;;;;;;;4956083;28;20125;-66
2021/08/23 11:26:07;;;;;;;9.73;8.70;;;;;;;;;;4971944;28;20057;-66
2021/08/23 11:28:34;;;;;;;11.30;10.05;;;;;;;;;;4970655;28;20049;-66
2021/08/23 11:31:04;;;;;;;10.85;9.30;;;;;;;;;;4970980;28;20051;-66
2021/08/23 11:33:32;;;;;;;8.65;7.75;;;;;;;;;;4971553;28;20054;-66
2021/08/23 11:36:00;;;;;;;8.23;6.57;;;;;;;;;;4971187;28;20053;-66
2021/08/23 11:38:28;;;;;;;5.88;5.40;;;;;;;;;;4971371;28;20042;-66
2021/08/23 11:40:57;;;;;;;6.85;6.15;;;;;;;;;;4971628;28;20051;-67
2021/08/23 11:43:26;;;;;;;6.97;6.25;;;;;;;;;;4972332;28;20053;-67
2021/08/23 11:45:53;;;;;;;6.63;5.97;;;;;;;;;;4972108;28;20057;-67
2021/08/23 11:48:21;;;;;;;6.15;5.65;;;;;;;;;;4976047;28;20123;-67
2021/08/23 11:50:49;;;;;;;5.97;5.30;;;;;;;;;;4975655;28;20093;-67
2021/08/23 11:53:17;;;;;;;7.60;6.90;;;;;;;;;;4976452;28;20121;-67
2021/08/23 11:55:45;;;;;;;5.82;5.43;;;;;;;;;;4975688;28;20078;-67
2021/08/23 11:58:15;;;;;;;3.90;3.60;;;;;;;;;;4976711;28;20047;-66
2021/08/23 12:00:43;;;;;;;4.00;3.70;;;;;;;;;;4977030;28;20486;-67
2021/08/23 12:03:12;;;;;;;2.47;2.38;;;;;;;;;;4975600;28;20050;-67
2021/08/23 12:05:41;;;;;;;3.58;3.28;;;;;;;;;;4975417;28;20099;-67
2021/08/23 12:08:09;;;;;;;3.03;2.72;;;;;;;;;;4975938;28;20038;-67
2021/08/23 12:10:37;;;;;;;3.15;2.88;;;;;;;;;;4975512;28;20047;-67
2021/08/23 12:13:11;;;;;;;2.67;2.47;;;;;;;;;;4995275;28;20053;-67
2021/08/23 12:15:50;;;;;;;2.90;2.70;;;;;;;;;;4995336;28;20042;-66
2021/08/23 12:18:17;;;;;;;2.97;2.70;;;;;;;;;;4999034;28;20117;-66
2021/08/23 12:20:45;;;;;;;3.00;2.80;;;;;;;;;;5005494;28;20050;-66
2021/08/23 12:23:12;;;;;;;3.83;3.53;;;;;;;;;;5002962;28;20056;-67
2021/08/23 12:25:39;;;;;;;2.40;2.30;;;;;;;;;;4991566;28;20062;-67
2021/08/23 12:28:17;;;;;;;3.15;2.95;;;;;;;;;;4976041;28;20179;-66
2021/08/23 12:30:45;;;;;;;3.75;3.10;;;;;;;;;;4976061;28;20125;-67
2021/08/23 12:33:17;;;;;;;4.18;3.40;;;;;;;;;;4983231;28;20058;-67
2021/08/23 12:35:44;;;;;;;3.47;3.17;;;;;;;;;;4989017;28;20055;-67
2021/08/23 12:38:12;;;;;;;3.05;2.85;;;;;;;;;;4988148;28;20062;-66
2021/08/23 12:40:39;;;;;;;4.57;3.17;;;;;;;;;;4987498;28;20046;-67
2021/08/23 12:43:06;;;;;;;3.33;2.97;;;;;;;;;;4983745;28;20062;-66
2021/08/23 12:45:34;;;;;;;3.58;3.00;;;;;;;;;;4974031;28;20051;-67
2021/08/23 12:48:03;;;;;;;3.15;2.95;;;;;;;;;;4974071;28;20042;-67
2021/08/23 12:50:30;;;;;;;3.80;3.50;;;;;;;;;;4972973;28;20070;-68
2021/08/23 12:52:57;;;;;;;3.95;3.65;;;;;;;;;;4973868;28;20043;-68
2021/08/23 12:55:24;;;;;;;2.30;2.20;;;;;;;;;;4973335;28;20078;-67
2021/08/23 12:57:51;;;;;;;2.22;2.13;;;;;;;;;;4973702;28;20043;-67
2021/08/23 13:00:19;;;;;;;2.25;2.10;;;;;;;;;;4973882;28;20043;-67
2021/08/23 13:02:47;;;;;;;2.53;2.33;;;;;;;;;;4973126;28;20046;-67
2021/08/23 13:05:16;;;;;;;2.40;2.20;;;;;;;;;;4971651;28;20062;-67
2021/08/23 13:07:43;;;;;;;3.42;2.28;;;;;;;;;;4973385;28;20407;-66
2021/08/23 13:10:11;;;;;;;3.75;2.67;;;;;;;;;;4973219;28;20039;-66
2021/08/23 13:12:38;;;;;;;2.95;2.70;;;;;;;;;;4977830;28;20158;-67
2021/08/23 13:15:05;;;;;;;3.60;3.30;;;;;;;;;;4973488;28;20225;-68
2021/08/23 13:17:33;;;;;;;3.10;2.90;;;;;;;;;;4972588;28;20065;-67
2021/08/23 13:20:00;;;;;;;3.67;3.13;;;;;;;;;;4973284;28;20038;-67
2021/08/23 13:22:29;;;;;;;3.20;2.72;;;;;;;;;;4972632;28;20171;-66
2021/08/23 13:24:56;;;;;;;4.63;3.20;;;;;;;;;;4971621;28;20038;-67
2021/08/23 13:27:23;;;;;;;3.22;3.00;;;;;;;;;;4972540;28;20047;-68
2021/08/23 13:29:51;;;;;;;4.22;2.92;;;;;;;;;;4958168;28;20039;-69
2021/08/23 13:32:18;;;;;;;3.70;3.33;;;;;;;;;;4973113;28;20047;-66
2021/08/23 13:34:45;;;;;;;3.58;3.28;;;;;;;;;;4972559;28;20058;-68
2021/08/23 13:37:12;;;;;;;3.63;3.33;;;;;;;;;;4972749;28;20042;-68
2021/08/23 13:39:41;;;;;;;4.50;4.10;;;;;;;;;;4972503;28;20049;-68
2021/08/23 13:42:08;;;;;;;4.82;4.43;;;;;;;;;;4972765;28;20082;-68
2021/08/23 13:44:36;;;;;;;6.97;4.70;;;;;;;;;;4970689;28;20051;-68
2021/08/23 13:47:03;;;;;;;4.93;4.53;;;;;;;;;;4972461;28;20043;-68
2021/08/23 13:49:31;;;;;;;4.45;4.05;;;;;;;;;;4972018;28;20043;-68
2021/08/23 13:51:58;;;;;;;6.75;3.60;;;;;;;;;;4972538;28;20039;-68
2021/08/23 13:54:25;;;;;;;4.13;3.72;;;;;;;;;;4971970;28;20054;-68
2021/08/23 13:56:56;;;;;;;3.58;3.25;;;;;;;;;;4972145;28;20042;-68
2021/08/23 13:59:23;;;;;;;4.65;3.10;;;;;;;;;;4972201;28;20047;-67
2021/08/23 14:01:52;;;;;;;3.60;3.10;;;;;;;;;;4972009;28;20145;-67
2021/08/23 14:04:19;;;;;;;3.03;2.70;;;;;;;;;;4971671;28;20066;-67
2021/08/23 14:06:46;;;;;;;3.53;2.17;;;;;;;;;;4971741;28;20049;-67
2021/08/23 14:09:15;;;;;;;2.85;2.65;;;;;;;;;;4971744;28;20046;-67
2021/08/23 14:11:43;;;;;;;3.80;2.47;;;;;;;;;;4972814;28;20390;-67
2021/08/23 14:14:12;;;;;;;4.57;2.20;;;;;;;;;;4972388;28;20042;-67
2021/08/23 14:16:39;;;;;;;2.50;2.30;;;;;;;;;;4971951;28;20073;-67
2021/08/23 14:19:08;;;;;;;3.22;2.40;;;;;;;;;;4972305;28;20039;-68
2021/08/23 14:21:36;;;;;;;4.60;2.95;;;;;;;;;;4972604;28;20050;-68
2021/08/23 14:24:04;;;;;;;2.72;2.53;;;;;;;;;;4979332;28;20053;-67
2021/08/23 14:26:31;;;;;;;2.38;2.28;;;;;;;;;;4984399;28;20190;-68
2021/08/23 14:28:59;;;;;;;2.60;2.40;;;;;;;;;;4982697;28;20053;-67
2021/08/23 14:31:28;;;;;;;3.13;2.88;;;;;;;;;;4981295;28;20058;-67
2021/08/23 14:33:55;;;;;;;3.60;3.30;;;;;;;;;;4984107;28;20039;-67
2021/08/23 14:36:22;;;;;;;3.75;3.42;;;;;;;;;;4983504;28;20053;-67
2021/08/23 14:38:49;;;;;;;5.40;3.80;;;;;;;;;;4973679;28;20046;-68
2021/08/23 14:41:18;;;;;;;4.53;4.13;;;;;;;;;;4971596;28;20055;-67
2021/08/23 14:43:45;;;;;;;8.52;4.80;;;;;;;;;;4971754;28;20431;-67
2021/08/23 14:46:13;;;;;;;5.70;5.00;;;;;;;;;;4971695;28;20126;-68
2021/08/23 14:48:42;;;;;;;5.97;5.43;;;;;;;;;;4971602;28;20046;-67
2021/08/23 14:51:10;;;;;;;8.25;6.07;;;;;;;;;;4971674;28;20380;-67
2021/08/23 14:53:37;;;;;;;10.35;5.82;;;;;;;;;;4969788;28;20065;-68
2021/08/23 14:56:04;;;;;;;6.68;6.07;;;;;;;;;;4971777;28;20047;-67
2021/08/23 14:58:32;;;;;;;8.35;5.90;;;;;;;;;;4971268;28;20047;-67
2021/08/23 15:00:59;;;;;;;7.60;5.97;;;;;;;;;;4971635;28;20035;-68
2021/08/23 15:03:26;;;;;;;6.57;5.57;;;;;;;;;;4960441;28;20082;-67
2021/08/23 15:05:55;;;;;;;6.75;6.05;;;;;;;;;;4971549;28;20045;-68
2021/08/23 15:08:23;;;;;;;8.30;5.72;;;;;;;;;;4970114;28;20578;-68
2021/08/23 15:10:52;;;;;;;9.38;6.65;;;;;;;;;;4973558;28;20039;-68
2021/08/23 15:13:20;;;;;;;6.82;6.15;;;;;;;;;;4971451;28;20577;-67
2021/08/23 15:15:47;;;;;;;6.88;6.28;;;;;;;;;;4971034;28;20110;-67
2021/08/23 15:18:15;;;;;;;7.22;6.50;;;;;;;;;;4971033;28;20453;-67
2021/08/23 15:20:44;;;;;;;7.43;6.72;;;;;;;;;;4973170;28;20069;-67
2021/08/23 15:23:12;;;;;;;7.85;6.90;;;;;;;;;;4975034;28;20100;-68
2021/08/23 15:25:39;;;;;;;8.23;7.00;;;;;;;;;;4975130;28;20046;-68
2021/08/23 15:28:07;;;;;;;7.07;6.47;;;;;;;;;;4975275;28;20149;-68
2021/08/23 15:30:35;;;;;;;10.00;7.20;;;;;;;;;;4975074;28;20035;-67
2021/08/23 15:33:07;;;;;;;9.10;7.18;;;;;;;;;;4974859;28;20466;-68
2021/08/23 15:35:34;;;;;;;8.63;7.13;;;;;;;;;;4975422;28;20043;-67
2021/08/23 15:38:02;;;;;;;7.47;6.25;;;;;;;;;;4976119;28;20047;-69
2021/08/23 15:40:30;;;;;;;7.38;6.28;;;;;;;;;;4975586;28;20130;-67
2021/08/23 15:42:59;;;;;;;7.07;6.15;;;;;;;;;;4974610;28;20049;-67
2021/08/23 15:45:26;;;;;;;8.23;7.38;;;;;;;;;;4974407;28;20051;-66
2021/08/23 15:47:54;;;;;;;8.43;7.55;;;;;;;;;;4974726;28;20122;-67
2021/08/23 15:50:21;;;;;;;7.38;6.68;;;;;;;;;;4975592;28;20049;-67
2021/08/23 15:52:50;;;;;;;9.52;7.05;;;;;;;;;;4976223;28;20049;-67
2021/08/23 15:55:18;;;;;;;7.05;6.28;;;;;;;;;;4974933;28;20082;-67
2021/08/23 15:57:47;;;;;;;7.50;6.68;;;;;;;;;;4974781;28;20529;-67
2021/08/23 16:00:14;;;;;;;8.23;7.22;;;;;;;;;;4974870;28;20042;-67
2021/08/23 16:02:42;;;;;;;9.07;7.32;;;;;;;;;;4974420;28;20066;-67
2021/08/23 16:05:11;;;;;;;7.80;7.03;;;;;;;;;;4974501;28;20461;-67
2021/08/23 16:07:38;;;;;;;7.13;6.40;;;;;;;;;;4972795;28;20094;-67
2021/08/23 16:10:06;;;;;;;8.13;6.55;;;;;;;;;;4974545;28;20039;-67
2021/08/23 16:12:39;;;;;;;7.38;6.63;;;;;;;;;;4974980;28;20069;-67
2021/08/23 16:15:10;;;;;;;10.38;6.80;;;;;;;;;;4974576;28;20086;-67
2021/08/23 16:17:38;;;;;;;6.85;6.20;;;;;;;;;;4974140;28;20045;-67
2021/08/23 16:20:06;;;;;;;6.40;5.70;;;;;;;;;;4974119;28;20038;-67
2021/08/23 16:22:33;;;;;;;6.43;5.78;;;;;;;;;;4974066;28;20402;-67
2021/08/23 16:25:01;;;;;;;8.43;6.53;;;;;;;;;;4974425;28;20561;-67
2021/08/23 16:27:28;;;;;;;6.93;6.30;;;;;;;;;;4974110;28;20043;-67
2021/08/23 16:29:55;;;;;;;6.57;5.97;;;;;;;;;;4974761;28;20047;-67
2021/08/23 16:32:42;;;;;;;6.28;5.78;;;;;;;;;;4975048;28;20047;-68
2021/08/23 16:35:12;;;;;;;6.95;6.35;;;;;;;;;;4966171;28;20570;-67
2021/08/23 16:37:39;;;;;;;7.07;6.13;;;;;;;;;;4973518;28;20047;-68
2021/08/23 16:40:09;;;;;;;7.80;6.18;;;;;;;;;;4973910;28;20047;-67
2021/08/23 16:42:37;;;;;;;7.13;5.60;;;;;;;;;;4974041;28;20046;-67
2021/08/23 16:45:04;;;;;;;7.85;6.40;;;;;;;;;;4973531;28;20043;-67
2021/08/23 16:47:33;;;;;;;7.40;6.15;;;;;;;;;;4973554;28;20085;-67
2021/08/23 16:50:00;;;;;;;6.95;5.70;;;;;;;;;;4973585;28;20375;-68
2021/08/23 16:52:28;;;;;;;7.35;6.18;;;;;;;;;;4973794;28;20050;-67
2021/08/23 16:54:55;;;;;;;6.75;6.10;;;;;;;;;;4962732;28;20039;-68
2021/08/23 16:57:22;;;;;;;6.63;5.95;;;;;;;;;;4974036;28;20118;-67
2021/08/23 16:59:49;;;;;;;7.57;6.25;;;;;;;;;;4974105;28;20418;-67
2021/08/23 17:02:17;;;;;;;7.75;5.88;;;;;;;;;;4974560;28;20049;-67
2021/08/23 17:04:45;;;;;;;6.85;6.07;;;;;;;;;;5004824;23;20057;-66
2021/08/23 17:07:24;;;;;;;7.20;6.13;;;;;;;;;;4992649;28;20077;-67
2021/08/23 17:09:51;;;;;;;8.48;5.55;;;;;;;;;;4977506;28;20038;-67
2021/08/23 17:12:19;;;;;;;9.05;5.40;;;;;;;;;;4991412;28;20097;-66
2021/08/23 17:14:46;;;;;;;6.60;5.35;;;;;;;;;;4985979;28;20047;-66
2021/08/23 17:17:14;;;;;;;8.05;5.72;;;;;;;;;;4987671;28;20051;-66
2021/08/23 17:19:41;;;;;;;9.35;6.47;;;;;;;;;;4975936;28;20048;-66
2021/08/23 17:22:10;;;;;;;7.88;5.47;;;;;;;;;;4984054;28;20054;-68
2021/08/23 17:24:38;;;;;;;9.88;6.35;;;;;;;;;;4976363;28;20389;-66
2021/08/23 17:27:05;;;;;;;9.85;5.65;;;;;;;;;;4987028;28;20511;-66
2021/08/23 17:29:33;;;;;;;8.65;5.80;;;;;;;;;;4981813;28;20043;-66
2021/08/23 17:32:00;;;;;;;9.00;6.05;;;;;;;;;;4983900;28;20557;-67
2021/08/23 17:34:27;;;;;;;7.13;5.90;;;;;;;;;;4983822;28;20411;-66
2021/08/23 17:36:54;;;;;;;8.35;5.97;;;;;;;;;;4980280;28;20074;-66
2021/08/23 17:39:23;;;;;;;6.35;5.85;;;;;;;;;;4980571;28;20051;-66
2021/08/23 17:41:52;;;;;;;8.73;6.00;;;;;;;;;;4984132;28;20046;-66
2021/08/23 17:44:19;;;;;;;8.68;6.53;;;;;;;;;;4981959;28;20078;-66
2021/08/23 17:46:47;;;;;;;7.32;6.20;;;;;;;;;;4976169;28;20056;-66
2021/08/23 17:49:14;;;;;;;7.32;6.35;;;;;;;;;;4983320;28;20525;-66
2021/08/23 17:51:41;;;;;;;10.15;7.78;;;;;;;;;;4983301;28;20417;-66
2021/08/23 17:54:09;;;;;;;6.85;5.75;;;;;;;;;;4983248;28;20057;-66
2021/08/23 17:56:38;;;;;;;6.97;6.38;;;;;;;;;;4982383;28;20078;-66
2021/08/23 17:59:05;;;;;;;8.50;6.80;;;;;;;;;;4980834;28;20051;-66
2021/08/23 18:01:32;;;;;;;8.27;7.40;;;;;;;;;;4981615;28;20408;-66
2021/08/23 18:03:59;;;;;;;9.68;8.60;;;;;;;;;;4982932;28;20078;-66
2021/08/23 18:06:26;;;;;;;10.10;8.27;;;;;;;;;;4983426;28;20050;-66
2021/08/23 18:08:54;;;;;;;9.35;7.35;;;;;;;;;;4979621;28;20592;-66
2021/08/23 18:11:21;;;;;;;9.93;8.82;;;;;;;;;;4981388;28;20537;-66
2021/08/23 18:13:50;;;;;;;8.52;7.72;;;;;;;;;;4980636;28;20546;-66
2021/08/23 18:16:17;;;;;;;8.50;7.68;;;;;;;;;;4967645;28;20058;-66
2021/08/23 18:18:44;;;;;;;10.98;7.85;;;;;;;;;;4975337;28;20053;-66
2021/08/23 18:21:13;;;;;;;10.07;7.63;;;;;;;;;;4985050;28;20071;-66
2021/08/23 18:23:41;;;;;;;9.45;7.28;;;;;;;;;;4979586;28;20105;-66
2021/08/23 18:26:08;;;;;;;8.50;7.32;;;;;;;;;;4972796;28;20054;-66
2021/08/23 18:28:35;;;;;;;10.48;7.22;;;;;;;;;;4979528;28;20126;-66
2021/08/23 18:31:04;;;;;;;7.72;7.05;;;;;;;;;;4984583;28;20056;-66
2021/08/23 18:33:32;;;;;;;11.80;8.05;;;;;;;;;;4981287;28;20042;-67
2021/08/23 18:35:59;;;;;;;8.73;7.03;;;;;;;;;;4986359;28;20054;-67
2021/08/23 18:38:26;;;;;;;9.02;6.50;;;;;;;;;;4979931;28;20058;-68
2021/08/23 18:40:56;;;;;;;7.63;6.68;;;;;;;;;;4982669;28;20049;-67
2021/08/23 18:43:25;;;;;;;7.32;6.32;;;;;;;;;;4983458;28;20042;-68
2021/08/23 18:45:52;;;;;;;7.45;6.65;;;;;;;;;;4986832;28;20050;-67
2021/08/23 18:48:21;;;;;;;8.45;6.65;;;;;;;;;;4987449;28;20070;-67
2021/08/23 18:50:48;;;;;;;7.85;7.10;;;;;;;;;;4979348;28;20054;-67
2021/08/23 18:53:16;;;;;;;10.68;7.72;;;;;;;;;;4986281;28;20050;-67
2021/08/23 18:55:43;;;;;;;12.35;9.18;;;;;;;;;;4983517;28;20636;-67
2021/08/23 18:58:11;;;;;;;10.63;9.63;;;;;;;;;;4985443;28;20296;-67
2021/08/23 19:00:38;;;;;;;14.25;10.40;;;;;;;;;;4974618;28;20232;-67
2021/08/23 19:03:06;;;;;;;13.55;11.43;;;;;;;;;;4985860;28;20501;-67
2021/08/23 19:05:35;;;;;;;15.65;13.75;;;;;;;;;;4971287;28;20055;-67
2021/08/23 19:08:02;;;;;;;14.68;13.15;;;;;;;;;;4972030;28;20046;-67
2021/08/23 19:10:30;;;;;;;13.25;11.85;;;;;;;;;;4972588;28;20042;-67
2021/08/23 19:12:58;;;;;;;17.15;11.55;;;;;;;;;;4976472;28;20054;-67
2021/08/23 19:15:25;;;;;;;12.77;11.48;;;;;;;;;;4975274;28;20051;-67
2021/08/23 19:17:52;;;;;;;13.80;12.40;;;;;;;;;;4972959;28;20042;-67
2021/08/23 19:20:19;;;;;;;14.45;12.07;;;;;;;;;;4978471;28;20046;-67
2021/08/23 19:22:50;;;;;;;13.43;11.15;;;;;;;;;;4982498;28;20080;-67
2021/08/23 19:25:18;;;;;;;14.20;10.93;;;;;;;;;;4989248;28;20057;-68
2021/08/23 19:27:45;;;;;;;11.05;9.90;;;;;;;;;;4973103;28;20046;-66
2021/08/23 19:30:13;;;;;;;10.30;9.30;;;;;;;;;;4983730;28;20046;-66
2021/08/23 19:32:40;;;;;;;12.23;10.13;;;;;;;;;;4974625;28;20071;-66